sensor_id;sensor_type;location;lat;lon;timestamp;pressure;altitude;pressure_sealevel;temperature;humidity
70971;BME280;58632;51.718;19.446;2022-08-11T00:01:21;100459.03;;;15.04;62.94
70971;BME280;58632;51.718;19.446;2022-08-11T00:03:56;100464.55;;;15.04;63.19
70971;BME280;58632;51.718;19.446;2022-08-11T00:06:31;100458.80;;;15.03;63.32
70971;BME280;58632;51.718;19.446;2022-08-11T00:09:03;100461.46;;;15.06;63.58
70971;BME280;58632;51.718;19.446;2022-08-11T00:11:39;100457.00;;;15.07;64.12
70971;BME280;58632;51.718;19.446;2022-08-11T00:14:23;100450.80;;;15.10;63.97
70971;BME280;58632;51.718;19.446;2022-08-11T00:17:05;100457.65;;;15.04;63.84
70971;BME280;58632;51.718;19.446;2022-08-11T00:19:37;100459.11;;;14.95;64.04
70971;BME280;58632;51.718;19.446;2022-08-11T00:22:09;100454.02;;;14.91;63.95
70971;BME280;58632;51.718;19.446;2022-08-11T00:24:39;100453.77;;;14.90;63.86
70971;BME280;58632;51.718;19.446;2022-08-11T00:27:07;100458.95;;;14.92;63.92
70971;BME280;58632;51.718;19.446;2022-08-11T00:29:34;100455.73;;;14.90;64.09
70971;BME280;58632;51.718;19.446;2022-08-11T00:32:04;100460.54;;;14.87;64.09
70971;BME280;58632;51.718;19.446;2022-08-11T00:34:35;100466.17;;;14.90;64.42
70971;BME280;58632;51.718;19.446;2022-08-11T00:37:09;100460.34;;;14.92;64.31
70971;BME280;58632;51.718;19.446;2022-08-11T00:39:44;100464.47;;;14.92;64.57
70971;BME280;58632;51.718;19.446;2022-08-11T00:42:48;100464.95;;;14.94;64.42
70971;BME280;58632;51.718;19.446;2022-08-11T00:45:35;100457.73;;;14.95;64.54
70971;BME280;58632;51.718;19.446;2022-08-11T00:48:24;100466.05;;;14.87;64.65
70971;BME280;58632;51.718;19.446;2022-08-11T00:51:19;100471.48;;;14.74;65.22
70971;BME280;58632;51.718;19.446;2022-08-11T01:00:02;100466.72;;;14.69;65.11
70971;BME280;58632;51.718;19.446;2022-08-11T01:03:23;100466.11;;;14.63;65.12
70971;BME280;58632;51.718;19.446;2022-08-11T01:12:05;100463.06;;;14.56;65.09
70971;BME280;58632;51.718;19.446;2022-08-11T01:27:33;100466.63;;;14.48;64.72
70971;BME280;58632;51.718;19.446;2022-08-11T01:30:45;100466.24;;;14.43;64.73
70971;BME280;58632;51.718;19.446;2022-08-11T01:45:58;100463.30;;;14.10;65.49
70971;BME280;58632;51.718;19.446;2022-08-11T01:48:48;100458.32;;;14.03;65.69
70971;BME280;58632;51.718;19.446;2022-08-11T01:52:01;100470.37;;;14.05;65.46
70971;BME280;58632;51.718;19.446;2022-08-11T01:54:43;100459.61;;;14.06;65.58
70971;BME280;58632;51.718;19.446;2022-08-11T01:57:27;100464.47;;;14.00;65.80
70971;BME280;58632;51.718;19.446;2022-08-11T02:00:14;100460.38;;;13.91;65.99
70971;BME280;58632;51.718;19.446;2022-08-11T02:03:07;100467.81;;;13.91;66.01
70971;BME280;58632;51.718;19.446;2022-08-11T02:11:31;100474.36;;;14.01;65.81
70971;BME280;58632;51.718;19.446;2022-08-11T02:17:21;100466.99;;;13.99;65.77
70971;BME280;58632;51.718;19.446;2022-08-11T02:29:08;100466.25;;;13.96;65.59
70971;BME280;58632;51.718;19.446;2022-08-11T02:31:44;100467.27;;;13.91;65.51
70971;BME280;58632;51.718;19.446;2022-08-11T02:40:25;100458.76;;;13.82;65.55
70971;BME280;58632;51.718;19.446;2022-08-11T02:43:04;100461.11;;;13.77;65.62
70971;BME280;58632;51.718;19.446;2022-08-11T02:45:48;100464.13;;;13.78;65.73
70971;BME280;58632;51.718;19.446;2022-08-11T02:48:38;100461.11;;;13.77;65.63
70971;BME280;58632;51.718;19.446;2022-08-11T02:52:04;100456.44;;;13.78;65.63
70971;BME280;58632;51.718;19.446;2022-08-11T02:54:58;100459.73;;;13.77;65.77
70971;BME280;58632;51.718;19.446;2022-08-11T03:00:06;100462.03;;;13.75;65.66
70971;BME280;58632;51.718;19.446;2022-08-11T03:12:08;100456.77;;;13.67;65.65
70971;BME280;58632;51.718;19.446;2022-08-11T03:15:09;100453.21;;;13.67;65.49
70971;BME280;58632;51.718;19.446;2022-08-11T03:21:18;100445.94;;;13.53;65.88
70971;BME280;58632;51.718;19.446;2022-08-11T03:24:05;100452.59;;;13.52;65.95
70971;BME280;58632;51.718;19.446;2022-08-11T03:27:12;100459.46;;;13.61;65.85
70971;BME280;58632;51.718;19.446;2022-08-11T03:32:53;100457.34;;;13.67;65.93
70971;BME280;58632;51.718;19.446;2022-08-11T03:45:25;100458.80;;;13.55;66.49
70971;BME280;58632;51.718;19.446;2022-08-11T03:53:54;100461.33;;;13.63;66.61
70971;BME280;58632;51.718;19.446;2022-08-11T03:56:45;100463.02;;;13.70;66.58
70971;BME280;58632;51.718;19.446;2022-08-11T03:59:38;100457.47;;;13.79;66.56
70971;BME280;58632;51.718;19.446;2022-08-11T04:20:22;100467.98;;;14.18;66.69
70971;BME280;58632;51.718;19.446;2022-08-11T04:37:48;;;;20.86;59.16
70971;BME280;58632;51.718;19.446;2022-08-11T04:43:42;100469.83;;;22.65;54.44
70971;BME280;58632;51.718;19.446;2022-08-11T04:50:12;100475.15;;;24.46;49.75
70971;BME280;58632;51.718;19.446;2022-08-11T04:56:00;100480.78;;;25.85;46.41
70971;BME280;58632;51.718;19.446;2022-08-11T05:16:50;100485.17;;;23.20;49.36
70971;BME280;58632;51.718;19.446;2022-08-11T05:19:42;100481.43;;;23.30;48.94
70971;BME280;58632;51.718;19.446;2022-08-11T05:22:30;100481.09;;;23.07;49.39
70971;BME280;58632;51.718;19.446;2022-08-11T05:25:27;100483.89;;;23.07;49.22
70971;BME280;58632;51.718;19.446;2022-08-11T05:28:35;100482.19;;;23.27;48.18
70971;BME280;58632;51.718;19.446;2022-08-11T05:31:35;100491.75;;;23.22;47.69
70971;BME280;58632;51.718;19.446;2022-08-11T05:34:28;100488.89;;;23.46;45.91
70971;BME280;58632;51.718;19.446;2022-08-11T05:37:37;100485.66;;;23.40;46.42
70971;BME280;58632;51.718;19.446;2022-08-11T05:40:29;100478.79;;;23.20;46.25
70971;BME280;58632;51.718;19.446;2022-08-11T05:43:17;100484.45;;;23.34;46.35
70971;BME280;58632;51.718;19.446;2022-08-11T05:46:05;100491.13;;;24.57;44.53
70971;BME280;58632;51.718;19.446;2022-08-11T05:48:52;100488.09;;;25.64;43.10
70971;BME280;58632;51.718;19.446;2022-08-11T05:51:40;100490.45;;;26.66;41.18
70971;BME280;58632;51.718;19.446;2022-08-11T05:54:28;100484.59;;;27.48;40.27
70971;BME280;58632;51.718;19.446;2022-08-11T05:57:20;100480.92;;;28.36;38.87
70971;BME280;58632;51.718;19.446;2022-08-11T06:00:00;100486.98;;;28.93;35.87
70971;BME280;58632;51.718;19.446;2022-08-11T06:02:31;100486.36;;;29.37;36.01
70971;BME280;58632;51.718;19.446;2022-08-11T06:05:00;100488.31;;;30.05;35.43
70971;BME280;58632;51.718;19.446;2022-08-11T06:07:29;100490.84;;;30.60;35.52
70971;BME280;58632;51.718;19.446;2022-08-11T06:09:59;100483.98;;;31.07;34.93
70971;BME280;58632;51.718;19.446;2022-08-11T06:12:29;100488.57;;;31.59;33.33
70971;BME280;58632;51.718;19.446;2022-08-11T06:15:07;100482.25;;;31.93;33.06
70971;BME280;58632;51.718;19.446;2022-08-11T06:17:45;100485.85;;;32.02;29.86
70971;BME280;58632;51.718;19.446;2022-08-11T06:20:15;100486.59;;;31.64;30.42
70971;BME280;58632;51.718;19.446;2022-08-11T06:23:01;100483.77;;;31.43;29.60
70971;BME280;58632;51.718;19.446;2022-08-11T06:25:34;100485.76;;;31.00;29.29
70971;BME280;58632;51.718;19.446;2022-08-11T06:28:04;100483.91;;;31.02;29.95
70971;BME280;58632;51.718;19.446;2022-08-11T06:30:41;100482.67;;;31.24;30.82
70971;BME280;58632;51.718;19.446;2022-08-11T06:33:12;100485.33;;;31.52;30.56
70971;BME280;58632;51.718;19.446;2022-08-11T06:36:03;100482.53;;;31.78;29.83
70971;BME280;58632;51.718;19.446;2022-08-11T06:44:51;100485.83;;;31.05;30.17
70971;BME280;58632;51.718;19.446;2022-08-11T06:47:35;100492.78;;;30.47;32.02
70971;BME280;58632;51.718;19.446;2022-08-11T06:50:07;100492.74;;;30.14;30.90
70971;BME280;58632;51.718;19.446;2022-08-11T06:52:39;100483.43;;;29.81;32.03
70971;BME280;58632;51.718;19.446;2022-08-11T06:55:14;100475.44;;;29.39;31.19
70971;BME280;58632;51.718;19.446;2022-08-11T06:58:17;100477.48;;;28.95;31.45
70971;BME280;58632;51.718;19.446;2022-08-11T07:01:09;100482.59;;;28.80;32.10
70971;BME280;58632;51.718;19.446;2022-08-11T07:03:45;100475.23;;;28.75;32.17
70971;BME280;58632;51.718;19.446;2022-08-11T07:12:40;100484.19;;;28.58;34.34
70971;BME280;58632;51.718;19.446;2022-08-11T07:15:29;100478.30;;;28.84;33.07
70971;BME280;58632;51.718;19.446;2022-08-11T07:18:15;100475.17;;;28.90;31.03
70971;BME280;58632;51.718;19.446;2022-08-11T07:21:09;100467.03;;;28.72;32.10
70971;BME280;58632;51.718;19.446;2022-08-11T07:23:57;100465.58;;;28.76;32.48
70971;BME280;58632;51.718;19.446;2022-08-11T07:26:49;100470.70;;;28.81;32.62
70971;BME280;58632;51.718;19.446;2022-08-11T07:29:37;100470.74;;;28.89;32.88
70971;BME280;58632;51.718;19.446;2022-08-11T07:32:23;100463.67;;;29.01;32.51
70971;BME280;58632;51.718;19.446;2022-08-11T07:35:30;100464.23;;;29.04;32.03
70971;BME280;58632;51.718;19.446;2022-08-11T07:37:32;100464.49;;;29.01;31.92
70971;BME280;58632;51.718;19.446;2022-08-11T07:40:01;100464.66;;;29.02;32.17
70971;BME280;58632;51.718;19.446;2022-08-11T07:42:32;100462.20;;;29.04;32.28
70971;BME280;58632;51.718;19.446;2022-08-11T07:45:05;100460.44;;;29.02;31.93
70971;BME280;58632;51.718;19.446;2022-08-11T07:47:53;100463.16;;;28.86;32.36
70971;BME280;58632;51.718;19.446;2022-08-11T07:50:42;100462.66;;;28.91;32.91
70971;BME280;58632;51.718;19.446;2022-08-11T07:53:29;100460.70;;;28.88;32.91
70971;BME280;58632;51.718;19.446;2022-08-11T07:55:59;100462.86;;;28.92;32.45
70971;BME280;58632;51.718;19.446;2022-08-11T07:58:28;100458.94;;;28.86;31.54
70971;BME280;58632;51.718;19.446;2022-08-11T08:01:23;100454.09;;;28.86;31.95
70971;BME280;58632;51.718;19.446;2022-08-11T08:04:11;100453.89;;;28.97;31.96
70971;BME280;58632;51.718;19.446;2022-08-11T08:07:05;100460.20;;;28.93;31.59
70971;BME280;58632;51.718;19.446;2022-08-11T08:09:50;100455.72;;;28.76;31.79
70971;BME280;58632;51.718;19.446;2022-08-11T08:12:39;100459.99;;;28.72;31.50
70971;BME280;58632;51.718;19.446;2022-08-11T08:15:26;100461.84;;;28.70;33.31
70971;BME280;58632;51.718;19.446;2022-08-11T08:18:14;100458.33;;;28.75;32.54
70971;BME280;58632;51.718;19.446;2022-08-11T08:20:44;100471.58;;;28.78;31.84
70971;BME280;58632;51.718;19.446;2022-08-11T08:23:13;100458.55;;;28.64;32.13
70971;BME280;58632;51.718;19.446;2022-08-11T08:25:44;100461.36;;;28.52;32.70
70971;BME280;58632;51.718;19.446;2022-08-11T08:28:15;100476.56;;;28.31;33.14
70971;BME280;58632;51.718;19.446;2022-08-11T08:30:45;100468.67;;;28.34;33.76
70971;BME280;58632;51.718;19.446;2022-08-11T08:35:55;100461.63;;;28.34;33.92
70971;BME280;58632;51.718;19.446;2022-08-11T08:38:49;100469.10;;;28.21;33.36
70971;BME280;58632;51.718;19.446;2022-08-11T08:41:26;100463.02;;;28.11;33.11
70971;BME280;58632;51.718;19.446;2022-08-11T08:44:03;100463.23;;;28.23;33.75
70971;BME280;58632;51.718;19.446;2022-08-11T08:46:53;100468.37;;;28.28;33.21
70971;BME280;58632;51.718;19.446;2022-08-11T08:49:32;100469.75;;;27.90;33.38
70971;BME280;58632;51.718;19.446;2022-08-11T08:52:04;100465.54;;;27.74;33.05
70971;BME280;58632;51.718;19.446;2022-08-11T08:54:36;100467.94;;;27.76;33.69
70971;BME280;58632;51.718;19.446;2022-08-11T08:57:07;100458.70;;;27.60;32.84
70971;BME280;58632;51.718;19.446;2022-08-11T08:59:43;100466.24;;;27.51;33.00
70971;BME280;58632;51.718;19.446;2022-08-11T09:02:07;100457.71;;;27.58;34.04
70971;BME280;58632;51.718;19.446;2022-08-11T09:04:38;100452.02;;;27.77;34.11
70971;BME280;58632;51.718;19.446;2022-08-11T09:07:09;100458.52;;;28.01;33.33
70971;BME280;58632;51.718;19.446;2022-08-11T09:09:43;100459.52;;;28.03;32.60
70971;BME280;58632;51.718;19.446;2022-08-11T09:12:14;100448.74;;;27.98;32.63
70971;BME280;58632;51.718;19.446;2022-08-11T09:14:47;100452.48;;;28.03;32.76
70971;BME280;58632;51.718;19.446;2022-08-11T09:17:46;100447.73;;;27.84;32.51
70971;BME280;58632;51.718;19.446;2022-08-11T09:20:23;100451.61;;;27.79;33.11
70971;BME280;58632;51.718;19.446;2022-08-11T09:22:55;100452.70;;;27.27;32.91
70971;BME280;58632;51.718;19.446;2022-08-11T09:25:43;100454.97;;;26.82;32.95
70971;BME280;58632;51.718;19.446;2022-08-11T09:28:30;100455.03;;;26.56;33.74
70971;BME280;58632;51.718;19.446;2022-08-11T09:31:00;100459.16;;;26.86;34.16
70971;BME280;58632;51.718;19.446;2022-08-11T09:33:29;100456.34;;;26.67;33.79
70971;BME280;58632;51.718;19.446;2022-08-11T09:35:59;100450.57;;;26.63;33.96
70971;BME280;58632;51.718;19.446;2022-08-11T09:38:32;100453.26;;;26.92;34.11
70971;BME280;58632;51.718;19.446;2022-08-11T09:41:17;100440.90;;;27.24;33.44
70971;BME280;58632;51.718;19.446;2022-08-11T09:43:45;100447.45;;;27.60;32.28
70971;BME280;58632;51.718;19.446;2022-08-11T09:46:32;100446.84;;;27.76;31.99
70971;BME280;58632;51.718;19.446;2022-08-11T09:49:01;100436.25;;;27.99;31.64
70971;BME280;58632;51.718;19.446;2022-08-11T09:51:31;100445.22;;;28.17;30.66
70971;BME280;58632;51.718;19.446;2022-08-11T09:54:01;100437.69;;;28.22;30.93
70971;BME280;58632;51.718;19.446;2022-08-11T09:56:33;100436.89;;;28.10;31.92
70971;BME280;58632;51.718;19.446;2022-08-11T09:59:20;100437.89;;;28.35;31.13
70971;BME280;58632;51.718;19.446;2022-08-11T10:01:51;100437.05;;;28.50;32.11
70971;BME280;58632;51.718;19.446;2022-08-11T10:04:42;100431.02;;;28.36;31.13
70971;BME280;58632;51.718;19.446;2022-08-11T10:07:15;100439.09;;;28.34;31.39
70971;BME280;58632;51.718;19.446;2022-08-11T10:09:48;100425.74;;;28.03;32.04
70971;BME280;58632;51.718;19.446;2022-08-11T10:12:36;100427.70;;;27.79;32.26
70971;BME280;58632;51.718;19.446;2022-08-11T10:15:10;100422.55;;;27.58;31.82
70971;BME280;58632;51.718;19.446;2022-08-11T10:18:08;100430.75;;;27.61;32.51
70971;BME280;58632;51.718;19.446;2022-08-11T10:23:41;100416.79;;;27.54;32.30
70971;BME280;58632;51.718;19.446;2022-08-11T10:26:29;100409.63;;;27.49;32.42
70971;BME280;58632;51.718;19.446;2022-08-11T10:29:17;100400.15;;;27.66;32.61
70971;BME280;58632;51.718;19.446;2022-08-11T10:32:04;100406.09;;;27.88;32.23
70971;BME280;58632;51.718;19.446;2022-08-11T10:34:52;100403.72;;;27.98;31.49
70971;BME280;58632;51.718;19.446;2022-08-11T10:37:23;100402.76;;;27.65;31.63
70971;BME280;58632;51.718;19.446;2022-08-11T10:39:51;100399.66;;;27.29;31.83
70971;BME280;58632;51.718;19.446;2022-08-11T10:42:22;100399.84;;;27.11;32.78
70971;BME280;58632;51.718;19.446;2022-08-11T10:45:09;100398.57;;;27.35;32.33
70971;BME280;58632;51.718;19.446;2022-08-11T10:47:47;100398.16;;;27.63;32.44
70971;BME280;58632;51.718;19.446;2022-08-11T10:50:15;100381.80;;;27.70;32.19
70971;BME280;58632;51.718;19.446;2022-08-11T10:53:02;100391.73;;;27.78;32.16
70971;BME280;58632;51.718;19.446;2022-08-11T10:55:49;100383.88;;;27.93;31.42
70971;BME280;58632;51.718;19.446;2022-08-11T10:58:36;100377.64;;;27.94;31.34
70971;BME280;58632;51.718;19.446;2022-08-11T11:03:52;100378.19;;;27.97;30.93
70971;BME280;58632;51.718;19.446;2022-08-11T11:06:34;100380.17;;;28.12;30.69
70971;BME280;58632;51.718;19.446;2022-08-11T11:09:16;100381.86;;;27.94;30.78
70971;BME280;58632;51.718;19.446;2022-08-11T11:11:50;100381.18;;;27.71;31.19
70971;BME280;58632;51.718;19.446;2022-08-11T11:14:42;100379.73;;;27.74;31.46
70971;BME280;58632;51.718;19.446;2022-08-11T11:17:32;100370.34;;;27.84;32.14
70971;BME280;58632;51.718;19.446;2022-08-11T11:23:13;100352.31;;;28.17;31.02
70971;BME280;58632;51.718;19.446;2022-08-11T11:37:39;100335.55;;;26.48;33.10
70971;BME280;58632;51.718;19.446;2022-08-11T11:40:11;100334.30;;;26.53;32.99
70971;BME280;58632;51.718;19.446;2022-08-11T11:42:43;100329.83;;;26.59;32.79
70971;BME280;58632;51.718;19.446;2022-08-11T11:45:14;100325.89;;;26.72;32.94
70971;BME280;58632;51.718;19.446;2022-08-11T11:47:46;100312.72;;;26.80;32.75
70971;BME280;58632;51.718;19.446;2022-08-11T11:50:28;100312.68;;;26.99;32.45
70971;BME280;58632;51.718;19.446;2022-08-11T11:52:58;100301.85;;;27.13;32.76
70971;BME280;58632;51.718;19.446;2022-08-11T11:55:28;100303.73;;;27.23;33.13
70971;BME280;58632;51.718;19.446;2022-08-11T11:57:59;100303.16;;;27.24;32.75
70971;BME280;58632;51.718;19.446;2022-08-11T12:00:46;100308.56;;;26.92;30.55
70971;BME280;58632;51.718;19.446;2022-08-11T12:03:34;100304.62;;;26.71;31.86
70971;BME280;58632;51.718;19.446;2022-08-11T12:06:03;100299.00;;;26.71;32.80
70971;BME280;58632;51.718;19.446;2022-08-11T12:08:34;100300.28;;;26.81;33.27
70971;BME280;58632;51.718;19.446;2022-08-11T12:11:06;100290.95;;;26.88;33.57
70971;BME280;58632;51.718;19.446;2022-08-11T12:13:56;100288.23;;;26.81;33.04
70971;BME280;58632;51.718;19.446;2022-08-11T12:16:26;100291.48;;;26.79;33.42
70971;BME280;58632;51.718;19.446;2022-08-11T12:18:59;100292.44;;;26.81;33.18
70971;BME280;58632;51.718;19.446;2022-08-11T12:21:29;100289.32;;;26.60;31.94
70971;BME280;58632;51.718;19.446;2022-08-11T12:23:59;100287.86;;;26.64;32.40
70971;BME280;58632;51.718;19.446;2022-08-11T12:26:47;100281.27;;;26.77;33.40
70971;BME280;58632;51.718;19.446;2022-08-11T12:29:17;100273.81;;;26.94;33.46
70971;BME280;58632;51.718;19.446;2022-08-11T12:31:47;100282.72;;;26.89;32.72
70971;BME280;58632;51.718;19.446;2022-08-11T12:34:15;100277.24;;;26.94;33.25
70971;BME280;58632;51.718;19.446;2022-08-11T12:36:53;100281.96;;;26.85;32.19
70971;BME280;58632;51.718;19.446;2022-08-11T12:39:32;100278.20;;;26.65;32.33
70971;BME280;58632;51.718;19.446;2022-08-11T12:42:20;100278.93;;;26.53;32.97
70971;BME280;58632;51.718;19.446;2022-08-11T12:45:11;100272.17;;;26.47;32.34
70971;BME280;58632;51.718;19.446;2022-08-11T12:48:09;100264.89;;;26.53;32.68
70971;BME280;58632;51.718;19.446;2022-08-11T12:51:04;100266.56;;;26.66;32.37
70971;BME280;58632;51.718;19.446;2022-08-11T12:54:01;100251.08;;;26.70;32.74
70971;BME280;58632;51.718;19.446;2022-08-11T12:56:45;100266.14;;;26.68;33.10
70971;BME280;58632;51.718;19.446;2022-08-11T12:59:34;100257.14;;;26.65;33.20
70971;BME280;58632;51.718;19.446;2022-08-11T13:02:23;100258.60;;;26.61;32.06
70971;BME280;58632;51.718;19.446;2022-08-11T13:05:12;100250.13;;;26.80;32.31
70971;BME280;58632;51.718;19.446;2022-08-11T13:07:43;100254.25;;;26.87;31.61
70971;BME280;58632;51.718;19.446;2022-08-11T13:10:14;100255.07;;;26.99;33.20
70971;BME280;58632;51.718;19.446;2022-08-11T13:12:50;100248.97;;;27.04;33.15
70971;BME280;58632;51.718;19.446;2022-08-11T13:15:21;100241.48;;;27.25;32.02
70971;BME280;58632;51.718;19.446;2022-08-11T13:17:52;100248.16;;;27.47;32.60
70971;BME280;58632;51.718;19.446;2022-08-11T13:20:22;100249.90;;;27.52;31.43
70971;BME280;58632;51.718;19.446;2022-08-11T13:22:53;100250.92;;;27.38;30.53
70971;BME280;58632;51.718;19.446;2022-08-11T13:25:25;100252.55;;;27.24;30.70
70971;BME280;58632;51.718;19.446;2022-08-11T13:27:56;100249.61;;;27.19;30.47
70971;BME280;58632;51.718;19.446;2022-08-11T13:30:28;100249.91;;;27.25;30.69
70971;BME280;58632;51.718;19.446;2022-08-11T13:33:16;100260.39;;;27.36;31.16
70971;BME280;58632;51.718;19.446;2022-08-11T13:35:46;100273.43;;;27.23;31.87
70971;BME280;58632;51.718;19.446;2022-08-11T13:38:17;100308.13;;;26.78;33.60
70971;BME280;58632;51.718;19.446;2022-08-11T13:40:52;100312.31;;;26.06;36.18
70971;BME280;58632;51.718;19.446;2022-08-11T13:43:22;100323.55;;;25.13;38.13
70971;BME280;58632;51.718;19.446;2022-08-11T13:45:51;100326.64;;;24.17;44.17
70971;BME280;58632;51.718;19.446;2022-08-11T13:48:21;100306.61;;;23.43;45.39
70971;BME280;58632;51.718;19.446;2022-08-11T13:50:49;100358.09;;;22.86;47.40
70971;BME280;58632;51.718;19.446;2022-08-11T13:53:35;100337.45;;;22.31;47.66
70971;BME280;58632;51.718;19.446;2022-08-11T13:56:05;100331.30;;;21.84;49.21
70971;BME280;58632;51.718;19.446;2022-08-11T13:58:33;100319.23;;;21.48;51.67
70971;BME280;58632;51.718;19.446;2022-08-11T14:01:00;100342.84;;;21.07;52.89
70971;BME280;58632;51.718;19.446;2022-08-11T14:03:30;100367.12;;;20.77;53.92
70971;BME280;58632;51.718;19.446;2022-08-11T14:06:00;100365.06;;;20.47;53.54
70971;BME280;58632;51.718;19.446;2022-08-11T14:08:31;100361.64;;;20.30;53.71
70971;BME280;58632;51.718;19.446;2022-08-11T14:11:03;100366.14;;;20.25;54.94
70971;BME280;58632;51.718;19.446;2022-08-11T14:13:51;100359.01;;;20.15;54.46
70971;BME280;58632;51.718;19.446;2022-08-11T14:16:28;100357.73;;;20.22;54.70
70971;BME280;58632;51.718;19.446;2022-08-11T14:19:00;100344.77;;;20.29;55.50
70971;BME280;58632;51.718;19.446;2022-08-11T14:21:33;100339.99;;;20.30;56.06
70971;BME280;58632;51.718;19.446;2022-08-11T14:24:22;100330.75;;;20.22;56.51
70971;BME280;58632;51.718;19.446;2022-08-11T14:26:50;100317.38;;;20.32;58.14
70971;BME280;58632;51.718;19.446;2022-08-11T14:29:21;100319.70;;;20.43;58.78
70971;BME280;58632;51.718;19.446;2022-08-11T14:31:57;100317.45;;;20.52;59.09
70971;BME280;58632;51.718;19.446;2022-08-11T14:34:28;100321.22;;;20.63;58.92
70971;BME280;58632;51.718;19.446;2022-08-11T14:37:03;100315.06;;;20.81;58.17
70971;BME280;58632;51.718;19.446;2022-08-11T14:39:44;100316.77;;;21.06;57.75
70971;BME280;58632;51.718;19.446;2022-08-11T14:42:12;100311.41;;;21.24;58.02
70971;BME280;58632;51.718;19.446;2022-08-11T14:45:06;100306.25;;;21.43;57.74
70971;BME280;58632;51.718;19.446;2022-08-11T14:48:00;100296.89;;;21.65;57.10
70971;BME280;58632;51.718;19.446;2022-08-11T14:50:32;100294.14;;;21.93;57.67
70971;BME280;58632;51.718;19.446;2022-08-11T14:53:02;100294.87;;;21.86;60.89
70971;BME280;58632;51.718;19.446;2022-08-11T14:55:37;100293.69;;;21.63;59.99
70971;BME280;58632;51.718;19.446;2022-08-11T14:58:28;100296.59;;;21.53;60.01
70971;BME280;58632;51.718;19.446;2022-08-11T15:00:57;100295.27;;;21.61;59.35
70971;BME280;58632;51.718;19.446;2022-08-11T15:03:30;100295.80;;;21.77;58.57
70971;BME280;58632;51.718;19.446;2022-08-11T15:06:01;100288.98;;;21.95;58.05
70971;BME280;58632;51.718;19.446;2022-08-11T15:08:33;100294.47;;;22.12;58.12
70971;BME280;58632;51.718;19.446;2022-08-11T15:11:23;100299.75;;;22.21;57.26
70971;BME280;58632;51.718;19.446;2022-08-11T15:14:12;100297.38;;;22.26;57.36
70971;BME280;58632;51.718;19.446;2022-08-11T15:16:44;100297.08;;;22.46;57.75
70971;BME280;58632;51.718;19.446;2022-08-11T15:19:32;100297.00;;;22.66;56.44
70971;BME280;58632;51.718;19.446;2022-08-11T15:22:01;100295.08;;;22.88;56.00
70971;BME280;58632;51.718;19.446;2022-08-11T15:24:47;100296.36;;;23.05;55.48
70971;BME280;58632;51.718;19.446;2022-08-11T15:27:18;100295.81;;;23.20;55.15
70971;BME280;58632;51.718;19.446;2022-08-11T15:30:06;100303.62;;;23.35;54.78
70971;BME280;58632;51.718;19.446;2022-08-11T15:32:52;100299.83;;;23.48;53.01
70971;BME280;58632;51.718;19.446;2022-08-11T15:35:41;100303.65;;;23.63;52.30
70971;BME280;58632;51.718;19.446;2022-08-11T15:38:27;100297.08;;;23.76;52.04
70971;BME280;58632;51.718;19.446;2022-08-11T15:40:59;100302.08;;;23.98;51.60
70971;BME280;58632;51.718;19.446;2022-08-11T15:43:53;100305.84;;;24.18;51.47
70971;BME280;58632;51.718;19.446;2022-08-11T15:46:48;100309.02;;;24.34;49.63
70971;BME280;58632;51.718;19.446;2022-08-11T15:49:22;100310.81;;;24.36;49.92
70971;BME280;58632;51.718;19.446;2022-08-11T15:51:59;100307.20;;;24.39;49.63
70971;BME280;58632;51.718;19.446;2022-08-11T15:54:31;100303.61;;;24.39;48.82
70971;BME280;58632;51.718;19.446;2022-08-11T15:57:01;100301.20;;;24.41;49.20
70971;BME280;58632;51.718;19.446;2022-08-11T15:59:33;100298.81;;;24.50;48.95
70971;BME280;58632;51.718;19.446;2022-08-11T16:02:24;100297.20;;;24.53;48.84
70971;BME280;58632;51.718;19.446;2022-08-11T16:05:05;100296.59;;;24.49;48.35
70971;BME280;58632;51.718;19.446;2022-08-11T16:07:36;100294.23;;;24.30;48.72
70971;BME280;58632;51.718;19.446;2022-08-11T16:10:08;100293.08;;;24.17;48.80
70971;BME280;58632;51.718;19.446;2022-08-11T16:12:42;100296.47;;;24.13;49.17
70971;BME280;58632;51.718;19.446;2022-08-11T16:15:34;100287.29;;;24.01;49.04
70971;BME280;58632;51.718;19.446;2022-08-11T16:18:32;100277.52;;;23.87;49.46
70971;BME280;58632;51.718;19.446;2022-08-11T16:21:00;100266.70;;;23.71;49.25
70971;BME280;58632;51.718;19.446;2022-08-11T16:23:29;100272.09;;;23.66;49.28
70971;BME280;58632;51.718;19.446;2022-08-11T16:25:56;100266.50;;;23.59;48.97
70971;BME280;58632;51.718;19.446;2022-08-11T16:28:26;100258.11;;;23.45;49.05
70971;BME280;58632;51.718;19.446;2022-08-11T16:30:57;100258.90;;;23.31;49.29
70971;BME280;58632;51.718;19.446;2022-08-11T16:33:27;100265.88;;;23.24;48.70
70971;BME280;58632;51.718;19.446;2022-08-11T16:35:56;100260.69;;;23.15;48.74
70971;BME280;58632;51.718;19.446;2022-08-11T16:38:43;100254.88;;;23.07;48.55
70971;BME280;58632;51.718;19.446;2022-08-11T16:41:14;100248.09;;;23.01;49.05
70971;BME280;58632;51.718;19.446;2022-08-11T16:43:47;100246.24;;;22.92;48.76
70971;BME280;58632;51.718;19.446;2022-08-11T16:46:34;100242.78;;;22.74;48.36
70971;BME280;58632;51.718;19.446;2022-08-11T16:49:28;100241.75;;;22.58;48.59
70971;BME280;58632;51.718;19.446;2022-08-11T16:51:54;100244.86;;;22.43;48.70
70971;BME280;58632;51.718;19.446;2022-08-11T16:54:21;100242.83;;;22.32;48.79
70971;BME280;58632;51.718;19.446;2022-08-11T16:56:50;100238.80;;;22.26;49.58